createdAt,value
2023-05-16T00:01:19.419Z,100210.78
2023-05-16T00:04:21.343Z,100212.50
2023-05-16T00:07:22.752Z,100214.59
2023-05-16T00:10:24.291Z,100222.53
2023-05-16T00:13:26.154Z,100218.09
2023-05-16T00:16:29.981Z,100212.00
2023-05-16T00:19:31.520Z,100220.81
2023-05-16T00:22:33.179Z,100212.00
2023-05-16T00:25:34.664Z,100212.06
2023-05-16T00:28:36.054Z,100207.94
2023-05-16T00:31:38.557Z,100213.47
2023-05-16T00:34:40.275Z,100200.69
2023-05-16T00:37:41.732Z,100201.56
2023-05-16T00:40:43.149Z,100201.56
2023-05-16T00:43:44.971Z,100205.13
2023-05-16T00:46:46.461Z,100208.72
2023-05-16T00:49:48.119Z,100204.28
2023-05-16T00:52:51.291Z,100199.84
2023-05-16T00:55:52.913Z,100208.94
2023-05-16T00:58:54.336Z,100213.31
2023-05-16T01:01:56.415Z,100207.16
2023-05-16T01:04:58.181Z,100209.88
2023-05-16T01:07:59.573Z,100203.72
2023-05-16T01:11:06.220Z,100211.66
2023-05-16T01:14:33.540Z,100211.66
2023-05-16T01:17:57.349Z,100212.44
2023-05-16T01:21:09.297Z,100205.28
2023-05-16T01:24:16.022Z,100214.19
2023-05-16T01:27:18.398Z,100216.66
2023-05-16T01:30:20.473Z,100208.88
2023-05-16T01:33:21.878Z,100211.72
2023-05-16T01:36:50.765Z,100209.25
2023-05-16T01:39:57.801Z,100206.88
2023-05-16T01:43:03.320Z,100211.31
2023-05-16T01:46:14.115Z,100222.78
2023-05-16T01:49:26.591Z,100215.81
2023-05-16T01:52:33.994Z,100216.69
2023-05-16T01:56:00.167Z,100221.91
2023-05-16T01:59:02.444Z,100229.41
2023-05-16T02:02:06.970Z,100227.91
2023-05-16T02:05:08.526Z,100235.38
2023-05-16T02:08:11.442Z,100229.59
2023-05-16T02:11:12.867Z,100229.75
2023-05-16T02:14:14.498Z,100235.84
2023-05-16T02:17:16.090Z,100235.66
2023-05-16T02:20:17.757Z,100227.09
2023-05-16T02:23:19.231Z,100231.53
2023-05-16T02:26:20.811Z,100230.94
2023-05-16T02:29:22.237Z,100232.69
2023-05-16T02:32:24.140Z,100233.50
2023-05-16T02:35:27.072Z,100238.09
2023-05-16T02:38:28.703Z,100240.41
2023-05-16T02:41:31.664Z,100239.81
2023-05-16T02:44:33.329Z,100248.06
2023-05-16T02:47:34.861Z,100247.47
2023-05-16T02:50:37.449Z,100229.81
2023-05-16T02:53:39.194Z,100237.63
2023-05-16T02:56:40.736Z,100235.16
2023-05-16T02:59:42.122Z,100235.31
2023-05-16T03:02:43.905Z,100235.28
2023-05-16T03:05:46.165Z,100237.41
2023-05-16T03:08:47.906Z,100238.56
2023-05-16T03:11:51.626Z,100238.09
2023-05-16T03:14:54.611Z,100247.03
2023-05-16T03:17:56.057Z,100242.66
2023-05-16T03:20:58.814Z,100253.31
2023-05-16T03:24:01.366Z,100258.69
2023-05-16T03:27:03.676Z,100254.66
2023-05-16T03:30:06.083Z,100250.38
2023-05-16T03:33:07.784Z,100261.09
2023-05-16T03:36:09.698Z,100260.22
2023-05-16T03:39:11.390Z,100264.69
2023-05-16T03:42:12.777Z,100264.47
2023-05-16T03:45:14.174Z,100267.50
2023-05-16T03:48:15.633Z,100280.09
2023-05-16T03:51:16.990Z,100276.66
2023-05-16T03:54:18.362Z,100273.06
2023-05-16T03:57:19.763Z,100277.59
2023-05-16T04:00:21.352Z,100294.31
2023-05-16T04:03:28.273Z,100299.66
2023-05-16T04:06:30.041Z,100292.88
2023-05-16T04:09:31.413Z,100305.06
2023-05-16T04:12:32.936Z,100299.66
2023-05-16T04:15:34.345Z,100304.69
2023-05-16T04:18:35.835Z,100308.97
2023-05-16T04:21:37.212Z,100314.41
2023-05-16T04:24:38.598Z,100317.09
2023-05-16T04:27:40.030Z,100323.97
2023-05-16T04:30:41.406Z,100317.97
2023-05-16T04:33:43.071Z,100322.47
2023-05-16T04:36:44.764Z,100331.13
2023-05-16T04:39:47.385Z,100315.13
2023-05-16T04:42:48.753Z,100328.88
2023-05-16T04:45:50.680Z,100335.50
2023-05-16T04:48:52.196Z,100331.94
2023-05-16T04:51:54.343Z,100340.94
2023-05-16T04:54:55.851Z,100336.66
2023-05-16T04:57:57.284Z,100336.00
2023-05-16T05:04:02.913Z,100345.63
2023-05-16T05:07:04.522Z,100344.34
2023-05-16T05:10:06.861Z,100345.97
2023-05-16T05:13:11.525Z,100346.22
2023-05-16T05:16:13.487Z,100349.53
2023-05-16T05:19:15.038Z,100341.03
2023-05-16T05:22:16.579Z,100351.50
2023-05-16T05:25:18.172Z,100354.00
2023-05-16T05:28:19.580Z,100352.13
2023-05-16T05:31:20.988Z,100365.06
2023-05-16T05:34:22.802Z,100354.41
2023-05-16T05:37:24.265Z,100353.44
2023-05-16T05:40:26.139Z,100356.34
2023-05-16T05:43:28.058Z,100358.13
2023-05-16T05:46:29.674Z,100361.41
2023-05-16T05:49:31.674Z,100352.31
2023-05-16T05:52:33.146Z,100365.66
2023-05-16T05:55:34.752Z,100361.75
2023-05-16T05:58:36.254Z,100371.06
2023-05-16T06:01:38.188Z,100376.19
2023-05-16T06:04:39.623Z,100373.53
2023-05-16T06:07:40.998Z,100376.09
2023-05-16T06:10:42.457Z,100380.09
2023-05-16T06:13:43.859Z,100377.03
2023-05-16T06:16:45.622Z,100378.63
2023-05-16T06:19:47.112Z,100384.56
2023-05-16T06:22:48.580Z,100385.69
2023-05-16T06:25:50.647Z,100387.22
2023-05-16T06:28:52.127Z,100390.22
2023-05-16T06:31:54.009Z,100390.78
2023-05-16T06:34:55.703Z,100393.53
2023-05-16T06:37:57.148Z,100394.59
2023-05-16T06:40:58.533Z,100400.44
2023-05-16T06:44:00.136Z,100406.06
2023-05-16T06:47:01.803Z,100402.56
2023-05-16T06:50:03.471Z,100410.22
2023-05-16T06:53:06.768Z,100417.88
2023-05-16T06:56:08.270Z,100421.16
2023-05-16T06:59:09.683Z,100427.56
2023-05-16T07:02:11.314Z,100431.19
2023-05-16T07:05:12.805Z,100438.84
2023-05-16T07:08:14.218Z,100441.06
2023-05-16T07:11:15.724Z,100434.09
2023-05-16T07:14:17.150Z,100441.34
2023-05-16T07:17:18.598Z,100432.59
2023-05-16T07:20:20.128Z,100435.34
2023-05-16T07:23:22.063Z,100429.19
2023-05-16T07:26:23.945Z,100426.16
2023-05-16T07:29:25.541Z,100434.91
2023-05-16T07:32:26.986Z,100430.28
2023-05-16T07:35:28.545Z,100424.63
2023-05-16T07:38:30.574Z,100444.69
2023-05-16T07:41:32.081Z,100439.81
2023-05-16T07:44:34.096Z,100450.34
2023-05-16T07:47:35.972Z,100455.94
2023-05-16T07:50:37.451Z,100457.88
2023-05-16T07:53:38.903Z,100450.63
2023-05-16T07:56:40.367Z,100458.59
2023-05-16T07:59:42.601Z,100454.16
2023-05-16T08:02:44.328Z,100460.59
2023-05-16T08:05:45.990Z,100463.50
2023-05-16T08:08:47.594Z,100460.59
2023-05-16T08:11:49.118Z,100457.34
2023-05-16T08:14:50.685Z,100461.84
2023-05-16T08:17:52.227Z,100467.97
2023-05-16T08:20:53.710Z,100462.78
2023-05-16T08:23:55.196Z,100468.34
2023-05-16T08:26:56.615Z,100474.47
2023-05-16T08:29:58.028Z,100476.25
2023-05-16T08:32:59.518Z,100476.31
2023-05-16T08:36:01.173Z,100482.66
2023-05-16T08:39:02.675Z,100470.28
2023-05-16T08:42:05.314Z,100475.66
2023-05-16T08:45:08.023Z,100475.91
2023-05-16T08:48:11.770Z,100486.22
2023-05-16T08:51:15.803Z,100479.56
2023-05-16T08:54:17.747Z,100484.38
2023-05-16T08:57:20.161Z,100481.81
2023-05-16T09:00:22.367Z,100488.94
2023-05-16T09:03:25.201Z,100483.88
2023-05-16T09:06:27.679Z,100487.66
2023-05-16T09:09:30.191Z,100490.22
2023-05-16T09:12:31.653Z,100487.81
2023-05-16T09:15:34.479Z,100478.78
2023-05-16T09:18:37.427Z,100485.53
2023-05-16T09:21:40.010Z,100477.94
2023-05-16T09:24:45.710Z,100489.41
2023-05-16T09:27:48.716Z,100484.56
2023-05-16T09:30:52.704Z,100482.72
2023-05-16T09:33:56.655Z,100482.53
2023-05-16T09:36:59.389Z,100487.63
2023-05-16T09:40:00.846Z,100480.69
2023-05-16T09:43:04.495Z,100480.63
2023-05-16T09:46:06.428Z,100492.78
2023-05-16T09:49:12.479Z,100499.13
2023-05-16T09:52:14.736Z,100501.00
2023-05-16T09:55:16.210Z,100512.00
2023-05-16T09:58:18.412Z,100507.56
2023-05-16T10:01:20.234Z,100498.28
2023-05-16T10:04:21.884Z,100496.44
2023-05-16T10:07:23.567Z,100499.19
2023-05-16T10:10:25.328Z,100511.47
2023-05-16T10:13:32.006Z,100521.16
2023-05-16T10:16:34.881Z,100509.06
2023-05-16T10:19:38.972Z,100515.66
2023-05-16T10:22:43.800Z,100523.91
2023-05-16T10:25:47.316Z,100521.47
2023-05-16T10:28:50.696Z,100530.03
2023-05-16T10:31:52.838Z,100537.88
2023-05-16T10:34:55.911Z,100545.06
2023-05-16T10:37:58.751Z,100537.91
2023-05-16T10:41:00.729Z,100543.47
2023-05-16T10:44:02.909Z,100552.22
2023-05-16T10:47:04.724Z,100543.59
2023-05-16T10:50:06.873Z,100551.25
2023-05-16T10:53:37.217Z,100558.91
2023-05-16T10:56:38.941Z,100546.44
2023-05-16T10:59:44.871Z,100565.84
2023-05-16T11:02:46.501Z,100551.84
2023-05-16T11:05:52.416Z,100553.47
2023-05-16T11:09:10.072Z,100557.69
2023-05-16T11:12:12.762Z,100565.66
2023-05-16T11:15:29.085Z,100583.34
2023-05-16T11:18:33.153Z,100576.59
2023-05-16T11:22:19.765Z,100574.28
2023-05-16T11:25:36.192Z,100574.81
2023-05-16T11:28:37.754Z,100581.13
2023-05-16T11:31:40.383Z,100589.13
2023-05-16T11:34:45.184Z,100584.59
2023-05-16T11:37:47.694Z,100590.69
2023-05-16T11:40:49.169Z,100593.69
2023-05-16T11:43:50.633Z,100586.78
2023-05-16T11:46:52.259Z,100586.00
2023-05-16T11:49:58.131Z,100578.78
2023-05-16T11:52:59.851Z,100592.16
2023-05-16T11:56:02.181Z,100586.22
2023-05-16T11:59:03.895Z,100596.78
2023-05-16T12:02:05.997Z,100604.88
2023-05-16T12:05:09.982Z,100603.88
2023-05-16T12:08:11.561Z,100601.56
2023-05-16T12:11:13.151Z,100602.63
2023-05-16T12:14:19.062Z,100609.25
2023-05-16T12:17:22.228Z,100605.34
2023-05-16T12:20:25.884Z,100601.78
2023-05-16T12:23:27.932Z,100608.31
2023-05-16T12:26:33.605Z,100613.13
2023-05-16T12:29:35.226Z,100617.47
2023-05-16T12:32:37.675Z,100624.34
2023-05-16T12:35:48.473Z,100620.22
2023-05-16T12:38:51.281Z,100613.66
2023-05-16T12:41:52.925Z,100621.25
2023-05-16T12:44:57.655Z,100621.41
2023-05-16T12:48:05.529Z,100615.56
2023-05-16T12:51:14.745Z,100619.97
2023-05-16T12:54:16.559Z,100622.31
2023-05-16T12:57:19.723Z,100628.44
2023-05-16T13:00:21.646Z,100624.03
2023-05-16T13:03:23.209Z,100632.69
2023-05-16T13:06:24.793Z,100629.72
2023-05-16T13:09:29.077Z,100628.84
2023-05-16T13:12:32.279Z,100630.88
2023-05-16T13:15:33.726Z,100629.38
2023-05-16T13:18:36.478Z,100636.94
2023-05-16T13:21:37.952Z,100640.38
2023-05-16T13:24:39.374Z,100641.31
2023-05-16T13:27:40.804Z,100636.00
2023-05-16T13:30:42.285Z,100652.22
2023-05-16T13:33:43.735Z,100639.06
2023-05-16T13:36:54.078Z,100635.16
2023-05-16T13:39:56.356Z,100643.34
2023-05-16T13:42:57.844Z,100636.31
2023-05-16T13:45:59.363Z,100642.41
2023-05-16T13:49:01.994Z,100640.19
2023-05-16T13:52:03.644Z,100641.03
2023-05-16T13:55:05.503Z,100642.06
2023-05-16T13:58:06.928Z,100633.09
2023-05-16T14:01:08.420Z,100638.19
2023-05-16T14:04:10.006Z,100639.28
2023-05-16T14:07:11.604Z,100636.09
2023-05-16T14:10:13.082Z,100631.69
2023-05-16T14:13:14.733Z,100623.69
2023-05-16T14:16:16.314Z,100622.53
2023-05-16T14:19:19.417Z,100626.50
2023-05-16T14:22:21.212Z,100618.59
2023-05-16T14:25:22.683Z,100624.75
2023-05-16T14:28:24.100Z,100626.50
2023-05-16T14:31:25.761Z,100621.59
2023-05-16T14:34:27.259Z,100614.16
2023-05-16T14:37:28.711Z,100618.38
2023-05-16T14:40:30.305Z,100617.81
2023-05-16T14:43:32.389Z,100622.75
2023-05-16T14:46:33.903Z,100629.91
2023-05-16T14:49:35.650Z,100625.84
2023-05-16T14:52:40.025Z,100629.41
2023-05-16T14:55:41.565Z,100620.59
2023-05-16T14:58:43.137Z,100618.19
2023-05-16T15:01:44.596Z,100611.59
2023-05-16T15:04:46.323Z,100612.34
2023-05-16T15:07:48.091Z,100613.03
2023-05-16T15:10:49.622Z,100609.22
2023-05-16T15:13:51.084Z,100607.97
2023-05-16T15:16:52.725Z,100612.50
2023-05-16T15:19:54.344Z,100601.50
2023-05-16T15:22:55.974Z,100609.88
2023-05-16T15:25:57.533Z,100606.94
2023-05-16T15:28:59.194Z,100601.75
2023-05-16T15:32:05.033Z,100601.00
2023-05-16T15:35:07.373Z,100600.31
2023-05-16T15:38:08.830Z,100597.69
2023-05-16T15:41:23.978Z,100597.59
2023-05-16T15:44:32.268Z,100592.75
2023-05-16T15:47:33.725Z,100596.28
2023-05-16T15:50:35.346Z,100587.78
2023-05-16T15:53:36.883Z,100592.50
2023-05-16T15:56:38.347Z,100590.50
2023-05-16T15:59:41.500Z,100587.13
2023-05-16T16:02:45.282Z,100590.03
2023-05-16T16:05:48.210Z,100587.44
2023-05-16T16:08:49.766Z,100594.34
2023-05-16T16:11:56.379Z,100603.84
2023-05-16T16:14:58.222Z,100602.63
2023-05-16T16:18:00.502Z,100601.78
2023-05-16T16:21:02.343Z,100600.38
2023-05-16T16:24:04.748Z,100604.06
2023-05-16T16:27:06.247Z,100598.59
2023-05-16T16:30:09.045Z,100587.75
2023-05-16T16:33:10.867Z,100607.00
2023-05-16T16:36:12.321Z,100601.09
2023-05-16T16:39:13.740Z,100604.44
2023-05-16T16:42:15.210Z,100595.19
2023-05-16T16:45:16.763Z,100603.31
2023-05-16T16:48:18.247Z,100608.78
2023-05-16T16:51:19.742Z,100606.31
2023-05-16T16:54:22.291Z,100611.81
2023-05-16T16:57:23.714Z,100612.16
2023-05-16T17:00:25.156Z,100611.19
2023-05-16T17:03:26.908Z,100616.22
2023-05-16T17:06:30.883Z,100612.84
2023-05-16T17:09:32.423Z,100623.91
2023-05-16T17:12:34.957Z,100621.03
2023-05-16T17:15:37.473Z,100628.63
2023-05-16T17:18:40.536Z,100631.44
2023-05-16T17:21:43.489Z,100634.09
2023-05-16T17:24:45.383Z,100646.94
2023-05-16T17:27:47.335Z,100644.19
2023-05-16T17:30:49.183Z,100654.41
2023-05-16T17:33:51.203Z,100650.81
2023-05-16T17:36:53.334Z,100649.13
2023-05-16T17:39:55.265Z,100654.44
2023-05-16T17:42:57.047Z,100653.41
2023-05-16T17:45:58.867Z,100653.41
2023-05-16T17:49:00.485Z,100663.06
2023-05-16T17:52:02.628Z,100669.53
2023-05-16T17:55:05.981Z,100666.25
2023-05-16T17:58:09.359Z,100672.06
2023-05-16T18:01:11.084Z,100676.00
2023-05-16T18:04:13.127Z,100685.78
2023-05-16T18:07:14.785Z,100682.78
2023-05-16T18:10:16.459Z,100683.03
2023-05-16T18:13:17.997Z,100694.69
2023-05-16T18:16:19.482Z,100695.09
2023-05-16T18:19:21.078Z,100700.72
2023-05-16T18:22:22.564Z,100701.03
2023-05-16T18:25:24.527Z,100703.53
2023-05-16T18:28:26.176Z,100702.94
2023-05-16T18:31:27.738Z,100708.00
2023-05-16T18:34:29.175Z,100721.97
2023-05-16T18:37:31.670Z,100718.47
2023-05-16T18:40:33.107Z,100727.16
2023-05-16T18:43:36.484Z,100726.66
2023-05-16T18:46:38.041Z,100729.31
2023-05-16T18:49:39.542Z,100736.03
2023-05-16T18:52:41.459Z,100744.56
2023-05-16T18:55:42.891Z,100751.97
2023-05-16T18:58:44.433Z,100754.50
2023-05-16T19:01:46.316Z,100765.13
2023-05-16T19:04:47.873Z,100766.84
2023-05-16T19:07:49.387Z,100765.91
2023-05-16T19:10:51.077Z,100772.59
2023-05-16T19:13:52.582Z,100773.53
2023-05-16T19:16:54.018Z,100769.38
2023-05-16T19:19:56.414Z,100773.16
2023-05-16T19:22:57.870Z,100780.66
2023-05-16T19:26:00.353Z,100786.34
2023-05-16T19:29:02.491Z,100792.91
2023-05-16T19:32:04.209Z,100791.59
2023-05-16T19:35:07.319Z,100805.53
2023-05-16T19:38:08.794Z,100800.81
2023-05-16T19:41:10.224Z,100806.78
2023-05-16T19:44:11.646Z,100807.97
2023-05-16T19:47:13.204Z,100816.13
2023-05-16T19:50:14.841Z,100806.66
2023-05-16T19:53:17.291Z,100810.22
2023-05-16T19:56:18.878Z,100816.00
2023-05-16T19:59:20.846Z,100825.50
2023-05-16T20:02:24.392Z,100827.97
2023-05-16T20:05:27.026Z,100840.94
2023-05-16T20:08:30.419Z,100835.88
2023-05-16T20:11:31.873Z,100845.03
2023-05-16T20:14:33.991Z,100848.69
2023-05-16T20:17:35.651Z,100854.16
2023-05-16T20:20:37.759Z,100849.88
2023-05-16T20:23:40.955Z,100857.97
2023-05-16T20:26:43.358Z,100857.13
2023-05-16T20:29:45.110Z,100854.63
2023-05-16T20:32:46.604Z,100864.75
2023-05-16T20:35:48.207Z,100858.13
2023-05-16T20:38:50.783Z,100872.38
2023-05-16T20:41:52.927Z,100871.94
2023-05-16T20:44:55.306Z,100876.66
2023-05-16T20:47:59.929Z,100877.81
2023-05-16T20:51:01.517Z,100877.16
2023-05-16T20:54:03.034Z,100873.00
2023-05-16T20:57:04.893Z,100883.78
2023-05-16T21:00:08.851Z,100883.91
2023-05-16T21:03:12.382Z,100887.66
2023-05-16T21:06:13.873Z,100892.94
2023-05-16T21:09:15.593Z,100894.03
2023-05-16T21:12:17.092Z,100893.38
2023-05-16T21:15:19.447Z,100900.59
2023-05-16T21:18:22.596Z,100899.91
2023-05-16T21:21:24.300Z,100907.22
2023-05-16T21:24:25.777Z,100908.59
2023-05-16T21:27:27.189Z,100906.19
2023-05-16T21:30:28.640Z,100902.88
2023-05-16T21:33:30.143Z,100917.19
2023-05-16T21:36:31.620Z,100918.22
2023-05-16T21:39:33.125Z,100911.59
2023-05-16T21:42:35.987Z,100913.72
2023-05-16T21:45:37.413Z,100924.41
2023-05-16T21:48:38.934Z,100922.84
2023-05-16T21:51:40.446Z,100932.47
2023-05-16T21:54:41.975Z,100935.34
2023-05-16T21:57:43.410Z,100943.56
2023-05-16T22:00:45.025Z,100940.28
2023-05-16T22:03:47.302Z,100931.78
2023-05-16T22:06:48.867Z,100943.41
2023-05-16T22:09:53.437Z,100942.50
2023-05-16T22:12:54.870Z,100943.50
2023-05-16T22:19:04.717Z,100951.66
2023-05-16T22:22:06.347Z,100950.16
2023-05-16T22:25:08.462Z,100955.50
2023-05-16T22:28:09.929Z,100954.75
2023-05-16T22:31:11.388Z,100960.28
2023-05-16T22:34:12.896Z,100964.06
2023-05-16T22:37:14.345Z,100971.22
2023-05-16T22:40:15.913Z,100957.13
2023-05-16T22:43:17.324Z,100973.06
2023-05-16T22:46:18.749Z,100972.25
2023-05-16T22:49:20.277Z,100975.78
2023-05-16T22:52:22.113Z,100974.03
2023-05-16T22:55:23.650Z,100970.53
2023-05-16T22:58:25.125Z,100969.66
2023-05-16T23:01:26.696Z,100968.84
2023-05-16T23:04:28.136Z,100969.06
2023-05-16T23:07:30.200Z,100970.06
2023-05-16T23:10:32.239Z,100977.22
2023-05-16T23:13:33.782Z,100979.25
2023-05-16T23:16:35.297Z,100970.59
2023-05-16T23:19:36.918Z,100978.50
2023-05-16T23:22:38.460Z,100978.50
2023-05-16T23:25:40.004Z,100978.50
2023-05-16T23:28:41.423Z,100987.44
2023-05-16T23:31:42.851Z,100984.91
2023-05-16T23:34:44.695Z,100994.84
2023-05-16T23:37:46.112Z,100992.28
2023-05-16T23:40:47.521Z,100988.88
2023-05-16T23:43:48.942Z,100997.91
2023-05-16T23:46:50.540Z,100992.69
2023-05-16T23:49:51.993Z,101005.06
2023-05-16T23:52:54.063Z,101003.41
2023-05-16T23:55:55.711Z,101005.28
2023-05-16T23:58:57.184Z,101005.16
